APL Coral — WDF6832 — position and weather

sailwx.info

Track history (hours):
 
Tides and Currents Weather Stations Pressure Air Temp Water Temp Dewpoint Dewpoint Depression Visibility Wind Speed Wind Dir Waves Ship Positions

APL Coral

Owner: APL Maritime Ltd., Bethesda, MD. More information available from US FCC via Universal Licensing System and Coast Guard Vessel Documentation Center.

Last reported at 2015-Jul-04 07:32 UTC. Time now 2015-Jul-05 07:44 UTC.
Position N 01°11' E 103°40'.

Length 275 m; draft 9.7 m.

Type: Cargo ship. MMSI: 367478280.

Date/timePositionNaut miles runAvg speedWind from/ knotsBaromVisibWave heightAir tempDewpointWater temp
2015-Jul-04 07:32N 01°11' E 103°40'1212.1
2015-Jul-04 06:32N 01°12' E 103°52'4 4.3
2015-Jul-04 05:33N 01°16' E 103°51'0 0.0
2015-Jul-04 04:28N 01°16' E 103°51'0 0.0
2015-Jul-04 03:28N 01°16' E 103°51'0 0.0
2015-Jul-04 02:04N 01°16' E 103°51'0 0.0
2015-Jul-04 01:31N 01°16' E 103°51'0 0.0
2015-Jul-04 00:12N 01°16' E 103°51'0 0.0
2015-Jul-03 23:33N 01°16' E 103°51'0 0.0
2015-Jul-03 22:33N 01°16' E 103°51'0 0.0
2015-Jul-03 21:33N 01°16' E 103°51'0 0.0
2015-Jul-03 20:33N 01°16' E 103°51'0 0.0
2015-Jul-03 19:33N 01°16' E 103°51'0 0.0
2015-Jul-03 18:33N 01°16' E 103°51'0 0.0
2015-Jul-03 17:33N 01°16' E 103°51'0 0.0
2015-Jul-03 16:30N 01°16' E 103°51'0 0.0
2015-Jul-03 15:33N 01°16' E 103°51'0 0.0
2015-Jul-03 14:30N 01°16' E 103°51'0 0.1
2015-Jul-03 13:27N 01°16' E 103°51'0 0.0
2015-Jul-03 12:33N 01°16' E 103°51'0 0.0
2015-Jul-03 11:33N 01°16' E 103°51'0 0.0
2015-Jul-03 10:33N 01°16' E 103°51'0 0.0
2015-Jul-03 09:30N 01°16' E 103°51'0 0.0
2015-Jul-03 08:33N 01°16' E 103°51'0 0.0
2015-Jul-03 07:33N 01°16' E 103°51'0 0.0
2015-Jul-03 06:30N 01°16' E 103°51'0 0.0
2015-Jul-03 05:33N 01°16' E 103°51'0 0.0
2015-Jul-03 04:33N 01°16' E 103°51'0 0.0
2015-Jul-03 03:33N 01°16' E 103°51'0 0.0
2015-Jul-03 02:33N 01°16' E 103°51'0 0.0
2015-Jul-03 01:30N 01°16' E 103°51'0 0.0
2015-Jul-03 00:27N 01°16' E 103°51'0 0.0
2015-Jul-02 23:33N 01°16' E 103°51'0 0.1
2015-Jul-02 22:33N 01°16' E 103°51'0 0.1
2015-Jul-02 21:33N 01°16' E 103°51'0 0.1
2015-Jul-02 20:33N 01°16' E 103°51'0 0.1
2015-Jul-02 19:33N 01°16' E 103°51'0 0.0
2015-Jul-02 18:33N 01°16' E 103°51'0 0.0
2015-Jul-02 17:30N 01°16' E 103°51'0 0.0
2015-Jul-02 16:33N 01°16' E 103°51'0 0.0
2015-Jul-02 15:33N 01°16' E 103°51'3 2.5
2015-Jul-02 14:33N 01°14' E 103°53'0 0.2
2015-Jul-02 13:32N 01°14' E 103°53'1 0.6
2015-Jul-02 12:34N 01°14' E 103°53'1 0.6
2015-Jul-02 11:33N 01°13' E 103°53'3 2.6
2015-Jul-02 10:34N 01°14' E 103°55'1615.9
2015-Jul-02 09:33N 01°17' E 104°11'  
2015-Jun-27 00:13N 01°18' E 104°20'1217.6
2015-Jun-26 23:33N 01°16' E 104°09'1616.3
2015-Jun-26 22:33N 01°13' E 103°53'4 3.7
2015-Jun-26 21:30N 01°16' E 103°50'0 0.1
2015-Jun-26 20:33N 01°16' E 103°50'0 0.1
2015-Jun-26 19:34N 01°16' E 103°50'0 0.1
2015-Jun-26 18:33N 01°16' E 103°50'0 0.1
2015-Jun-26 17:34N 01°16' E 103°50'0 0.0
2015-Jun-26 16:33N 01°16' E 103°50'0 0.0
2015-Jun-26 15:34N 01°16' E 103°50'0 0.0
2015-Jun-26 14:34N 01°16' E 103°50'0 0.1
2015-Jun-26 13:33N 01°16' E 103°50'0 0.1
2015-Jun-26 12:34N 01°16' E 103°50'0 0.0
2015-Jun-26 11:33N 01°16' E 103°50'0 0.1
2015-Jun-26 10:34N 01°16' E 103°50'0 0.0
2015-Jun-26 09:33N 01°16' E 103°50'0 0.0
2015-Jun-26 08:34N 01°16' E 103°50'0 0.1
2015-Jun-26 07:33N 01°16' E 103°50'0 0.0
2015-Jun-26 06:34N 01°16' E 103°50'0 0.0
2015-Jun-26 05:33N 01°16' E 103°50'0 0.1
2015-Jun-26 04:33N 01°16' E 103°50'0 0.1
2015-Jun-26 03:34N 01°16' E 103°50'0 0.1
2015-Jun-26 02:34N 01°16' E 103°50'0 0.0
2015-Jun-26 01:34N 01°16' E 103°50'0 0.0
2015-Jun-26 00:34N 01°16' E 103°50'0 0.1
2015-Jun-25 23:34N 01°16' E 103°50'1 0.7
2015-Jun-25 22:33N 01°16' E 103°51'4 4.2
2015-Jun-25 21:33N 01°11' E 103°51'16617.4
2015-Jun-25 12:00N 02°30' E 101°24'9415.6 090 / 51009.0 5.4 30.025.832.0
2015-Jun-25 06:00N 03°30' E 100°12'11018.4 110 / 51011.0 5.4 1.030.024.331.0
2015-Jun-25 00:00N 04°48' E 098°54'   180 / 51012.0 5.4 30.025.830.0
Track history (hours):
 
Tides and Currents Weather Stations Pressure Air Temp Water Temp Dewpoint Dewpoint Depression Visibility Wind Speed Wind Dir Waves Ship Positions

APL Coral

Owner: APL Maritime Ltd., Bethesda, MD. More information available from US FCC via Universal Licensing System and Coast Guard Vessel Documentation Center.

Last reported at 2015-Jul-04 07:32 UTC. Time now 2015-Jul-05 07:44 UTC.
Position N 01°11' E 103°40'.

Length 275 m; draft 9.7 m.

Type: Cargo ship. MMSI: 367478280.

Date/timePositionNaut miles runAvg speedWind from/ knotsBaromVisibWave heightAir tempDewpointWater temp
2015-Jul-04 07:32N 01°11' E 103°40'1212.1
2015-Jul-04 06:32N 01°12' E 103°52'4 4.3
2015-Jul-04 05:33N 01°16' E 103°51'0 0.0
2015-Jul-04 04:28N 01°16' E 103°51'0 0.0
2015-Jul-04 03:28N 01°16' E 103°51'0 0.0
2015-Jul-04 02:04N 01°16' E 103°51'0 0.0
2015-Jul-04 01:31N 01°16' E 103°51'0 0.0
2015-Jul-04 00:12N 01°16' E 103°51'0 0.0
2015-Jul-03 23:33N 01°16' E 103°51'0 0.0
2015-Jul-03 22:33N 01°16' E 103°51'0 0.0
2015-Jul-03 21:33N 01°16' E 103°51'0 0.0
2015-Jul-03 20:33N 01°16' E 103°51'0 0.0
2015-Jul-03 19:33N 01°16' E 103°51'0 0.0
2015-Jul-03 18:33N 01°16' E 103°51'0 0.0
2015-Jul-03 17:33N 01°16' E 103°51'0 0.0
2015-Jul-03 16:30N 01°16' E 103°51'0 0.0
2015-Jul-03 15:33N 01°16' E 103°51'0 0.0
2015-Jul-03 14:30N 01°16' E 103°51'0 0.1
2015-Jul-03 13:27N 01°16' E 103°51'0 0.0
2015-Jul-03 12:33N 01°16' E 103°51'0 0.0
2015-Jul-03 11:33N 01°16' E 103°51'0 0.0
2015-Jul-03 10:33N 01°16' E 103°51'0 0.0
2015-Jul-03 09:30N 01°16' E 103°51'0 0.0
2015-Jul-03 08:33N 01°16' E 103°51'0 0.0
2015-Jul-03 07:33N 01°16' E 103°51'0 0.0
2015-Jul-03 06:30N 01°16' E 103°51'0 0.0
2015-Jul-03 05:33N 01°16' E 103°51'0 0.0
2015-Jul-03 04:33N 01°16' E 103°51'0 0.0
2015-Jul-03 03:33N 01°16' E 103°51'0 0.0
2015-Jul-03 02:33N 01°16' E 103°51'0 0.0
2015-Jul-03 01:30N 01°16' E 103°51'0 0.0
2015-Jul-03 00:27N 01°16' E 103°51'0 0.0
2015-Jul-02 23:33N 01°16' E 103°51'0 0.1
2015-Jul-02 22:33N 01°16' E 103°51'0 0.1
2015-Jul-02 21:33N 01°16' E 103°51'0 0.1
2015-Jul-02 20:33N 01°16' E 103°51'0 0.1
2015-Jul-02 19:33N 01°16' E 103°51'0 0.0
2015-Jul-02 18:33N 01°16' E 103°51'0 0.0
2015-Jul-02 17:30N 01°16' E 103°51'0 0.0
2015-Jul-02 16:33N 01°16' E 103°51'0 0.0
2015-Jul-02 15:33N 01°16' E 103°51'3 2.5
2015-Jul-02 14:33N 01°14' E 103°53'0 0.2
2015-Jul-02 13:32N 01°14' E 103°53'1 0.6
2015-Jul-02 12:34N 01°14' E 103°53'1 0.6
2015-Jul-02 11:33N 01°13' E 103°53'3 2.6
2015-Jul-02 10:34N 01°14' E 103°55'1615.9
2015-Jul-02 09:33N 01°17' E 104°11'  
2015-Jun-27 00:13N 01°18' E 104°20'1217.6
2015-Jun-26 23:33N 01°16' E 104°09'1616.3
2015-Jun-26 22:33N 01°13' E 103°53'4 3.7
2015-Jun-26 21:30N 01°16' E 103°50'0 0.1
2015-Jun-26 20:33N 01°16' E 103°50'0 0.1
2015-Jun-26 19:34N 01°16' E 103°50'0 0.1
2015-Jun-26 18:33N 01°16' E 103°50'0 0.1
2015-Jun-26 17:34N 01°16' E 103°50'0 0.0
2015-Jun-26 16:33N 01°16' E 103°50'0 0.0
2015-Jun-26 15:34N 01°16' E 103°50'0 0.0
2015-Jun-26 14:34N 01°16' E 103°50'0 0.1
2015-Jun-26 13:33N 01°16' E 103°50'0 0.1
2015-Jun-26 12:34N 01°16' E 103°50'0 0.0
2015-Jun-26 11:33N 01°16' E 103°50'0 0.1
2015-Jun-26 10:34N 01°16' E 103°50'0 0.0
2015-Jun-26 09:33N 01°16' E 103°50'0 0.0
2015-Jun-26 08:34N 01°16' E 103°50'0 0.1
2015-Jun-26 07:33N 01°16' E 103°50'0 0.0
2015-Jun-26 06:34N 01°16' E 103°50'0 0.0
2015-Jun-26 05:33N 01°16' E 103°50'0 0.1
2015-Jun-26 04:33N 01°16' E 103°50'0 0.1
2015-Jun-26 03:34N 01°16' E 103°50'0 0.1
2015-Jun-26 02:34N 01°16' E 103°50'0 0.0
2015-Jun-26 01:34N 01°16' E 103°50'0 0.0
2015-Jun-26 00:34N 01°16' E 103°50'0 0.1
2015-Jun-25 23:34N 01°16' E 103°50'1 0.7
2015-Jun-25 22:33N 01°16' E 103°51'4 4.2
2015-Jun-25 21:33N 01°11' E 103°51'16617.4
2015-Jun-25 12:00N 02°30' E 101°24'9415.6 090 / 51009.0 5.4 30.025.832.0
2015-Jun-25 06:00N 03°30' E 100°12'11018.4 110 / 51011.0 5.4 1.030.024.331.0
2015-Jun-25 00:00N 04°48' E 098°54'   180 / 51012.0 5.4 30.025.830.0

Dump ship's entire track history